Time,TemperatureF,DewpointF,PressureIn,WindDirection,WindDirectionDegrees,WindSpeedMPH,WindSpeedGustMPH,Humidity,HourlyPrecipIn,Conditions,Clouds,dailyrainin,SoftwareType,DateUTC
2013-02-25 00:01:00,11.0,2.0,29.85,WSW,248,0.0,0.0,67,0.00,,,0.00,,2013-02-25 08:01:00,
2013-02-25 00:11:00,11.0,3.0,29.86,NNW,338,0.0,1.0,68,0.00,,,0.00,,2013-02-25 08:11:00,
2013-02-25 00:21:00,11.0,3.0,29.86,NNW,338,0.0,1.0,68,0.00,,,0.00,,2013-02-25 08:21:00,
2013-02-25 00:31:00,10.0,2.0,29.86,NE,45,0.0,0.0,68,0.00,,,0.00,,2013-02-25 08:31:00,
2013-02-25 00:41:00,10.0,2.0,29.86,NE,45,0.0,0.0,68,0.00,,,0.00,,2013-02-25 08:41:00,
2013-02-25 00:51:00,10.0,2.0,29.86,SE,135,0.0,0.0,68,0.00,,,0.00,,2013-02-25 08:51:00,
2013-02-25 01:01:00,9.0,1.0,29.86,ESE,113,0.0,0.0,68,0.00,,,0.00,,2013-02-25 09:01:00,
2013-02-25 01:12:00,9.0,1.0,29.86,ESE,113,0.0,0.0,68,0.00,,,0.00,,2013-02-25 09:12:00,
2013-02-25 01:21:00,9.0,1.0,29.86,SW,225,0.0,0.0,69,0.00,,,0.00,,2013-02-25 09:21:00,
2013-02-25 01:31:00,9.0,1.0,29.86,SE,141,0.0,0.0,70,0.00,,,0.00,,2013-02-25 09:31:00,
2013-02-25 01:41:00,9.0,1.0,29.86,SE,141,0.0,0.0,70,0.00,,,0.00,,2013-02-25 09:41:00,
2013-02-25 01:51:00,9.0,1.0,29.86,SSW,212,0.0,0.0,70,0.00,,,0.00,,2013-02-25 09:51:00,
2013-02-25 02:01:00,9.0,1.0,29.85,SSE,158,0.0,0.0,70,0.00,,,0.00,,2013-02-25 10:01:00,
2013-02-25 02:11:00,9.0,1.0,29.85,South,172,0.0,0.0,70,0.00,,,0.00,,2013-02-25 10:11:00,
2013-02-25 02:21:00,9.0,1.0,29.85,South,172,0.0,0.0,70,0.00,,,0.00,,2013-02-25 10:21:00,
2013-02-25 02:31:00,9.0,2.0,29.84,NW,315,0.0,0.0,71,0.00,,,0.00,,2013-02-25 10:31:00,
2013-02-25 02:41:00,9.0,2.0,29.84,NW,315,0.0,0.0,71,0.00,,,0.00,,2013-02-25 10:41:00,
2013-02-25 02:52:00,9.0,1.0,29.84,SSW,203,0.0,0.0,70,0.00,,,0.00,,2013-02-25 10:52:00,
2013-02-25 03:01:00,9.0,1.0,29.83,SE,135,0.0,0.0,70,0.00,,,0.00,,2013-02-25 11:01:00,
2013-02-25 03:11:00,9.0,1.0,29.83,SE,135,0.0,0.0,70,0.00,,,0.00,,2013-02-25 11:11:00,
2013-02-25 03:21:00,8.0,0.0,29.83,SW,225,0.0,0.0,70,0.00,,,0.00,,2013-02-25 11:21:00,
2013-02-25 03:32:00,8.0,0.0,29.82,NW,315,0.0,0.0,70,0.00,,,0.00,,2013-02-25 11:32:00,
2013-02-25 03:41:00,8.0,0.0,29.82,NW,315,0.0,0.0,70,0.00,,,0.00,,2013-02-25 11:41:00,
2013-02-25 03:52:00,8.0,0.0,29.82,SE,135,0.0,0.0,70,0.00,,,0.00,,2013-02-25 11:52:00,
2013-02-25 04:01:00,8.0,0.0,29.82,North,0,0.0,0.0,70,0.00,,,0.00,,2013-02-25 12:01:00,
2013-02-25 04:11:00,8.0,0.0,29.82,North,0,0.0,0.0,70,0.00,,,0.00,,2013-02-25 12:11:00,
2013-02-25 04:21:00,7.0,0.0,29.82,North,0,0.0,0.0,71,0.00,,,0.00,,2013-02-25 12:21:00,
2013-02-25 04:32:00,7.0,0.0,29.82,SSE,158,0.0,0.0,71,0.00,,,0.00,,2013-02-25 12:32:00,
2013-02-25 04:41:00,7.0,0.0,29.82,SSE,158,0.0,0.0,71,0.00,,,0.00,,2013-02-25 12:41:00,
2013-02-25 04:53:00,7.0,0.0,29.83,ESE,113,0.0,0.0,72,0.00,,,0.00,,2013-02-25 12:53:00,
2013-02-25 05:01:00,7.0,0.0,29.83,NNW,338,0.0,0.0,72,0.00,,,0.00,,2013-02-25 13:01:00,
2013-02-25 05:11:00,7.0,0.0,29.83,NNW,338,0.0,0.0,72,0.00,,,0.00,,2013-02-25 13:11:00,
2013-02-25 05:21:00,7.0,0.0,29.83,SSW,203,0.0,0.0,72,0.00,,,0.00,,2013-02-25 13:21:00,
2013-02-25 05:31:00,6.0,-1.0,29.83,South,180,0.0,0.0,72,0.00,,,0.00,,2013-02-25 13:31:00,
2013-02-25 05:41:00,6.0,-1.0,29.83,South,180,0.0,0.0,72,0.00,,,0.00,,2013-02-25 13:41:00,
2013-02-25 05:51:00,6.0,-1.0,29.83,NW,315,0.0,0.0,73,0.00,,,0.00,,2013-02-25 13:51:00,
2013-02-25 06:02:00,6.0,-1.0,29.83,NNW,338,0.0,0.0,73,0.00,,,0.00,,2013-02-25 14:02:00,
2013-02-25 06:12:00,6.0,-1.0,29.83,NNW,338,0.0,0.0,73,0.00,,,0.00,,2013-02-25 14:12:00,
2013-02-25 06:21:00,6.0,-1.0,29.83,South,180,0.0,0.0,73,0.00,,,0.00,,2013-02-25 14:21:00,
2013-02-25 06:31:00,6.0,-1.0,29.82,NNE,19,0.0,0.0,73,0.00,,,0.00,,2013-02-25 14:31:00,
2013-02-25 06:41:00,6.0,-1.0,29.82,NNE,19,0.0,0.0,73,0.00,,,0.00,,2013-02-25 14:41:00,
2013-02-25 06:52:00,6.0,-1.0,29.82,NE,45,0.0,0.0,73,0.00,,,0.00,,2013-02-25 14:52:00,
2013-02-25 07:02:00,6.0,-1.0,29.82,South,180,0.0,0.0,73,0.00,,,0.00,,2013-02-25 15:02:00,
2013-02-25 07:11:00,6.0,-1.0,29.82,South,180,0.0,0.0,73,0.00,,,0.00,,2013-02-25 15:11:00,
2013-02-25 07:21:00,7.0,0.0,29.82,NE,45,0.0,0.0,73,0.00,,,0.00,,2013-02-25 15:21:00,
2013-02-25 07:32:00,8.0,1.0,29.82,North,0,0.0,0.0,74,0.00,,,0.00,,2013-02-25 15:32:00,
2013-02-25 07:41:00,8.0,1.0,29.82,North,0,0.0,0.0,74,0.00,,,0.00,,2013-02-25 15:41:00,
2013-02-25 07:51:00,11.0,4.0,29.82,North,8,1.0,1.0,73,0.00,,,0.00,,2013-02-25 15:51:00,
2013-02-25 08:01:00,18.0,9.0,29.81,NNE,23,2.0,2.0,66,0.00,,,0.00,,2013-02-25 16:01:00,
2013-02-25 08:21:00,18.0,7.0,29.81,NNE,23,1.0,3.0,62,0.00,,,0.00,,2013-02-25 16:21:00,
2013-02-25 08:31:00,24.0,11.0,29.81,North,11,2.0,3.0,56,0.00,,,0.00,,2013-02-25 16:31:00,
2013-02-25 08:41:00,24.0,11.0,29.81,North,11,2.0,3.0,56,0.00,,,0.00,,2013-02-25 16:41:00,
2013-02-25 08:51:00,24.0,9.0,29.81,North,2,3.0,5.0,53,0.00,,,0.00,,2013-02-25 16:51:00,
2013-02-25 09:01:00,31.0,15.0,29.80,NNW,346,0.0,1.0,51,0.00,,,0.00,,2013-02-25 17:01:00,
2013-02-25 09:31:00,32.0,12.0,29.79,NNE,19,2.0,4.0,42,0.00,,,0.00,,2013-02-25 17:31:00,
2013-02-25 09:41:00,32.0,12.0,29.79,NNE,19,2.0,4.0,42,0.00,,,0.00,,2013-02-25 17:41:00,
2013-02-25 09:52:00,33.0,12.0,29.79,NE,40,3.0,3.0,42,0.00,,,0.00,,2013-02-25 17:52:00,
2013-02-25 10:01:00,34.0,12.0,29.78,North,0,1.0,4.0,40,0.00,,,0.00,,2013-02-25 18:01:00,
2013-02-25 10:21:00,36.0,13.0,29.78,NE,44,2.0,3.0,38,0.00,,,0.00,,2013-02-25 18:21:00,
2013-02-25 10:32:00,40.0,15.0,29.76,NE,45,0.0,3.0,35,0.00,,,0.00,,2013-02-25 18:32:00,
2013-02-25 10:41:00,40.0,15.0,29.76,NE,45,0.0,3.0,35,0.00,,,0.00,,2013-02-25 18:41:00,
2013-02-25 10:51:00,42.0,14.0,29.75,ESE,109,3.0,4.0,32,0.00,,,0.00,,2013-02-25 18:51:00,
2013-02-25 11:01:00,43.0,13.0,29.74,ESE,122,4.0,5.0,29,0.00,,,0.00,,2013-02-25 19:01:00,
2013-02-25 11:21:00,43.0,14.0,29.74,SE,129,2.0,6.0,30,0.00,,,0.00,,2013-02-25 19:21:00,
2013-02-25 11:31:00,44.0,12.0,29.73,ESE,113,5.0,8.0,27,0.00,,,0.00,,2013-02-25 19:31:00,
2013-02-25 11:41:00,44.0,12.0,29.73,ESE,113,5.0,8.0,27,0.00,,,0.00,,2013-02-25 19:41:00,
2013-02-25 11:52:00,43.0,12.0,29.73,SSW,207,2.0,6.0,28,0.00,,,0.00,,2013-02-25 19:52:00,
2013-02-25 12:01:00,44.0,14.0,29.72,West,276,2.0,11.0,29,0.00,,,0.00,,2013-02-25 20:01:00,
2013-02-25 12:21:00,44.0,12.0,29.72,SW,234,6.0,13.0,27,0.00,,,0.00,,2013-02-25 20:21:00,
2013-02-25 12:31:00,44.0,12.0,29.71,SW,215,4.0,10.0,27,0.00,,,0.00,,2013-02-25 20:31:00,
2013-02-25 12:41:00,44.0,12.0,29.71,SW,215,4.0,10.0,27,0.00,,,0.00,,2013-02-25 20:41:00,
2013-02-25 12:52:00,45.0,13.0,29.70,WSW,245,4.0,11.0,27,0.00,,,0.00,,2013-02-25 20:52:00,
2013-02-25 13:01:00,47.0,13.0,29.69,NNW,328,4.0,6.0,25,0.00,,,0.00,,2013-02-25 21:01:00,
2013-02-25 13:21:00,46.0,14.0,29.68,NW,320,3.0,7.0,27,0.00,,,0.00,,2013-02-25 21:21:00,
2013-02-25 13:31:00,47.0,13.0,29.67,NNE,26,2.0,10.0,25,0.00,,,0.00,,2013-02-25 21:31:00,
2013-02-25 13:41:00,47.0,13.0,29.67,NNE,26,2.0,10.0,25,0.00,,,0.00,,2013-02-25 21:41:00,
2013-02-25 13:51:00,47.0,13.0,29.67,North,351,4.0,10.0,25,0.00,,,0.00,,2013-02-25 21:51:00,
2013-02-25 14:01:00,47.0,12.0,29.67,North,349,4.0,13.0,24,0.00,,,0.00,,2013-02-25 22:01:00,
2013-02-25 14:11:00,47.0,12.0,29.67,North,349,4.0,13.0,24,0.00,,,0.00,,2013-02-25 22:11:00,
2013-02-25 14:21:00,47.0,12.0,29.67,NW,326,5.0,11.0,24,0.00,,,0.00,,2013-02-25 22:21:00,
2013-02-25 14:31:00,46.0,10.0,29.66,SSW,197,2.0,13.0,23,0.00,,,0.00,,2013-02-25 22:31:00,
2013-02-25 14:41:00,46.0,10.0,29.66,SSW,197,2.0,13.0,23,0.00,,,0.00,,2013-02-25 22:41:00,
2013-02-25 14:51:00,46.0,11.0,29.66,SW,226,4.0,11.0,24,0.00,,,0.00,,2013-02-25 22:51:00,
2013-02-25 15:01:00,47.0,12.0,29.64,WNW,302,2.0,7.0,24,0.00,,,0.00,,2013-02-25 23:01:00,
2013-02-25 15:11:00,47.0,12.0,29.64,WNW,302,2.0,7.0,24,0.00,,,0.00,,2013-02-25 23:11:00,
2013-02-25 15:21:00,47.0,12.0,29.64,SW,230,6.0,10.0,24,0.00,,,0.00,,2013-02-25 23:21:00,
2013-02-25 15:31:00,46.0,12.0,29.65,NNW,333,6.0,10.0,25,0.00,,,0.00,,2013-02-25 23:31:00,
2013-02-25 15:41:00,46.0,12.0,29.65,NNW,333,6.0,10.0,25,0.00,,,0.00,,2013-02-25 23:41:00,
2013-02-25 15:51:00,46.0,11.0,29.65,WSW,257,5.0,7.0,24,0.00,,,0.00,,2013-02-25 23:51:00,
2013-02-25 16:01:00,45.0,11.0,29.66,SW,222,6.0,9.0,25,0.00,,,0.00,,2013-02-26 00:01:00,
2013-02-25 16:11:00,45.0,11.0,29.66,SW,222,6.0,9.0,25,0.00,,,0.00,,2013-02-26 00:11:00,
2013-02-25 16:21:00,44.0,10.0,29.66,SW,229,4.0,7.0,25,0.00,,,0.00,,2013-02-26 00:21:00,
2013-02-25 16:32:00,41.0,13.0,29.68,NNW,332,4.0,16.0,32,0.00,,,0.00,,2013-02-26 00:32:00,
2013-02-25 16:41:00,41.0,13.0,29.68,NNW,332,4.0,16.0,32,0.00,,,0.00,,2013-02-26 00:41:00,
2013-02-25 16:51:00,39.0,15.0,29.68,North,350,6.0,13.0,37,0.00,,,0.00,,2013-02-26 00:51:00,
2013-02-25 17:01:00,37.0,17.0,29.69,NNW,342,6.0,16.0,43,0.00,,,0.00,,2013-02-26 01:01:00,
2013-02-25 17:11:00,37.0,17.0,29.69,NNW,342,6.0,16.0,43,0.00,,,0.00,,2013-02-26 01:11:00,
2013-02-25 17:21:00,37.0,17.0,29.69,North,352,4.0,9.0,44,0.00,,,0.00,,2013-02-26 01:21:00,
2013-02-25 17:31:00,36.0,17.0,29.71,NNW,337,5.0,14.0,46,0.00,,,0.00,,2013-02-26 01:31:00,
2013-02-25 17:41:00,36.0,17.0,29.71,NNW,337,5.0,14.0,46,0.00,,,0.00,,2013-02-26 01:41:00,
2013-02-25 17:51:00,34.0,20.0,29.72,North,358,12.0,19.0,57,0.00,,,0.00,,2013-02-26 01:51:00,
2013-02-25 18:01:00,31.0,20.0,29.73,North,9,7.0,13.0,62,0.00,,,0.00,,2013-02-26 02:01:00,
2013-02-25 18:11:00,31.0,20.0,29.73,North,9,7.0,13.0,62,0.00,,,0.00,,2013-02-26 02:11:00,
2013-02-25 18:21:00,30.0,18.0,29.73,North,6,7.0,14.0,61,0.00,,,0.00,,2013-02-26 02:21:00,
2013-02-25 18:31:00,29.0,19.0,29.73,NNE,27,6.0,13.0,65,0.00,,,0.00,,2013-02-26 02:31:00,
2013-02-25 18:41:00,29.0,19.0,29.73,NNE,27,6.0,13.0,65,0.00,,,0.00,,2013-02-26 02:41:00,
2013-02-25 18:52:00,28.0,17.0,29.73,NNE,28,2.0,9.0,63,0.00,,,0.00,,2013-02-26 02:52:00,
2013-02-25 19:01:00,28.0,17.0,29.73,WNW,282,0.0,3.0,62,0.00,,,0.00,,2013-02-26 03:01:00,
2013-02-25 19:11:00,28.0,17.0,29.73,WNW,282,0.0,3.0,62,0.00,,,0.00,,2013-02-26 03:11:00,
2013-02-25 19:21:00,27.0,16.0,29.73,West,271,1.0,2.0,62,0.00,,,0.00,,2013-02-26 03:21:00,
2013-02-25 19:31:00,27.0,16.0,29.73,WSW,248,1.0,2.0,62,0.00,,,0.00,,2013-02-26 03:31:00,
2013-02-25 19:41:00,27.0,16.0,29.73,WSW,248,1.0,2.0,62,0.00,,,0.00,,2013-02-26 03:41:00,
2013-02-25 19:51:00,26.0,15.0,29.74,WSW,248,2.0,3.0,63,0.00,,,0.00,,2013-02-26 03:51:00,
2013-02-25 20:01:00,26.0,14.0,29.74,West,273,0.0,2.0,61,0.00,,,0.00,,2013-02-26 04:01:00,
2013-02-25 20:11:00,26.0,14.0,29.74,West,273,0.0,2.0,61,0.00,,,0.00,,2013-02-26 04:11:00,
2013-02-25 20:21:00,25.0,13.0,29.74,West,263,2.0,3.0,61,0.00,,,0.00,,2013-02-26 04:21:00,
2013-02-25 20:31:00,25.0,13.0,29.74,WSW,250,2.0,2.0,61,0.00,,,0.00,,2013-02-26 04:31:00,
2013-02-25 20:42:00,25.0,13.0,29.74,WSW,250,2.0,2.0,61,0.00,,,0.00,,2013-02-26 04:42:00,
2013-02-25 20:51:00,25.0,13.0,29.74,SSW,203,2.0,3.0,61,0.00,,,0.00,,2013-02-26 04:51:00,
2013-02-25 21:01:00,23.0,12.0,29.74,SSE,160,1.0,3.0,62,0.00,,,0.00,,2013-02-26 05:01:00,
2013-02-25 21:11:00,22.0,11.0,29.75,SSE,162,0.0,2.0,62,0.00,,,0.00,,2013-02-26 05:11:00,
2013-02-25 21:21:00,22.0,11.0,29.75,SSE,162,0.0,2.0,62,0.00,,,0.00,,2013-02-26 05:21:00,
2013-02-25 21:31:00,21.0,10.0,29.74,South,180,0.0,1.0,63,0.00,,,0.00,,2013-02-26 05:31:00,
2013-02-25 21:42:00,21.0,10.0,29.74,South,180,0.0,1.0,63,0.00,,,0.00,,2013-02-26 05:42:00,
2013-02-25 21:52:00,21.0,10.0,29.74,SSE,165,0.0,1.0,63,0.00,,,0.00,,2013-02-26 05:52:00,
2013-02-25 22:01:00,20.0,10.0,29.74,ESE,113,0.0,0.0,65,0.00,,,0.00,,2013-02-26 06:01:00,
2013-02-25 22:11:00,20.0,10.0,29.74,ESE,113,0.0,0.0,65,0.00,,,0.00,,2013-02-26 06:11:00,
2013-02-25 22:21:00,20.0,10.0,29.74,NNW,338,0.0,1.0,65,0.00,,,0.00,,2013-02-26 06:21:00,
2013-02-25 22:31:00,19.0,9.0,29.74,ESE,109,1.0,1.0,65,0.00,,,0.00,,2013-02-26 06:31:00,
2013-02-25 22:41:00,19.0,9.0,29.74,ESE,109,1.0,1.0,65,0.00,,,0.00,,2013-02-26 06:41:00,
2013-02-25 22:51:00,19.0,10.0,29.74,SE,131,0.0,1.0,66,0.00,,,0.00,,2013-02-26 06:51:00,
2013-02-25 23:01:00,18.0,9.0,29.74,ESE,113,0.0,0.0,66,0.00,,,0.00,,2013-02-26 07:01:00,
2013-02-25 23:11:00,18.0,9.0,29.74,ESE,113,0.0,0.0,66,0.00,,,0.00,,2013-02-26 07:11:00,
2013-02-25 23:21:00,18.0,9.0,29.74,NNW,338,0.0,0.0,67,0.00,,,0.00,,2013-02-26 07:21:00,
2013-02-25 23:31:00,17.0,8.0,29.74,SE,129,0.0,1.0,68,0.00,,,0.00,,2013-02-26 07:31:00,
2013-02-25 23:41:00,17.0,8.0,29.74,SE,129,0.0,1.0,68,0.00,,,0.00,,2013-02-26 07:41:00,
2013-02-25 23:51:00,16.0,8.0,29.74,SW,225,0.0,1.0,69,0.00,,,0.00,,2013-02-26 07:51:00,